VA70 weather

Riverside Walter Reed Hospital Heliport
Gloucester, Virginia, United States

Public forecast

Using degrees Fahrenheit for public forecast. Weather courtesy of forecast.io.

METAR (pilot weather report)

Closest report is Middle Peninsula Regional Airport, 12.1 nm (22.5 km) WNW. Retrieved 2019/07/17 13:35 UTC (25 minutes ago):

KFYJ 171335Z AUTO 18004KT 10SM CLR 29/26 A3004 RMK AO1 T02890255

TAF (pilot weather forecast)

Closest forecast is Newport News Williamsburg International Airport, 17.6 nm (32.5 km) S. Retrieved 2019/07/17 12:22 UTC (2 hours ago):

TAF KPHF 171120Z 1712/1812 22006KT P6SM SKC FM171500 23011KT P6SM SCT050 SCT250 FM172000 21011KT P6SM VCSH BKN045 FM180100 20010KT P6SM SCT090